createdAt,value
2019-04-04T00:02:23.781Z,98591.78
2019-04-04T00:04:52.503Z,98595.03
2019-04-04T00:07:20.720Z,98590.45
2019-04-04T00:09:48.555Z,98585.55
2019-04-04T00:12:16.307Z,98582.58
2019-04-04T00:14:44.265Z,98583.42
2019-04-04T00:17:12.073Z,98581.52
2019-04-04T00:19:39.872Z,98591.26
2019-04-04T00:22:07.709Z,98606.37
2019-04-04T00:24:35.661Z,98617.73
2019-04-04T00:27:03.412Z,98610.15
2019-04-04T00:29:31.212Z,98609.09
2019-04-04T00:31:59.010Z,98609.07
2019-04-04T00:34:28.108Z,98619.89
2019-04-04T00:36:56.692Z,98608.00
2019-04-04T00:39:24.522Z,98618.53
2019-04-04T00:41:52.294Z,98615.55
2019-04-04T00:44:22.718Z,98616.62
2019-04-04T00:46:49.733Z,98623.34
2019-04-04T00:49:17.508Z,98620.94
2019-04-04T00:51:45.279Z,98622.45
2019-04-04T00:54:14.121Z,98622.45
2019-04-04T00:56:42.460Z,98625.70
2019-04-04T00:59:10.246Z,98616.75
2019-04-04T01:01:38.011Z,98618.83
2019-04-04T01:04:05.781Z,98617.18
2019-04-04T01:06:34.289Z,98619.30
2019-04-04T01:09:04.642Z,98622.73
2019-04-04T01:11:32.423Z,98621.48
2019-04-04T01:14:00.594Z,98626.31
2019-04-04T01:16:28.401Z,98629.77
2019-04-04T01:18:56.165Z,98643.37
2019-04-04T01:21:24.026Z,98644.95
2019-04-04T01:23:51.821Z,98635.67
2019-04-04T01:26:19.599Z,98641.48
2019-04-04T01:28:47.365Z,98632.75
2019-04-04T01:31:15.541Z,98641.66
2019-04-04T01:33:43.367Z,98641.02
2019-04-04T01:36:11.159Z,98638.96
2019-04-04T01:38:38.905Z,98644.96
2019-04-04T01:41:06.652Z,98639.75
2019-04-04T01:43:34.813Z,98642.88
2019-04-04T01:46:02.540Z,98647.61
2019-04-04T01:48:30.265Z,98654.06
2019-04-04T01:50:58.035Z,98664.95
2019-04-04T01:53:25.763Z,98667.25
2019-04-04T01:55:53.805Z,98665.41
2019-04-04T01:58:21.537Z,98671.05
2019-04-04T02:00:49.289Z,98670.18
2019-04-04T02:03:17.793Z,98665.95
2019-04-04T02:05:45.521Z,98666.34
2019-04-04T02:08:13.272Z,98672.55
2019-04-04T02:10:40.985Z,98675.57
2019-04-04T02:13:09.865Z,98669.09
2019-04-04T02:15:38.245Z,98674.55
2019-04-04T02:18:05.998Z,98667.17
2019-04-04T02:20:33.867Z,98664.86
2019-04-04T02:23:01.950Z,98670.27
2019-04-04T02:25:29.744Z,98673.27
2019-04-04T02:27:57.898Z,98673.89
2019-04-04T02:30:25.621Z,98667.74
2019-04-04T02:32:53.694Z,98676.32
2019-04-04T02:35:21.756Z,98670.64
2019-04-04T02:37:49.533Z,98672.44
2019-04-04T02:40:17.279Z,98679.45
2019-04-04T02:42:45.062Z,98687.84
2019-04-04T02:45:12.922Z,98696.80
2019-04-04T02:47:40.746Z,98707.95
2019-04-04T02:50:08.891Z,98702.41
2019-04-04T02:52:36.634Z,98697.82
2019-04-04T02:55:04.823Z,98692.02
2019-04-04T02:57:32.591Z,98685.08
2019-04-04T03:00:00.425Z,98680.02
2019-04-04T03:02:28.188Z,98680.89
2019-04-04T03:04:55.946Z,98677.39
2019-04-04T03:07:23.679Z,98678.79
2019-04-04T03:09:51.399Z,98679.75
2019-04-04T03:12:19.287Z,98685.19
2019-04-04T03:14:50.313Z,98664.16
2019-04-04T03:17:16.706Z,98666.81
2019-04-04T03:19:44.686Z,98657.00
2019-04-04T03:22:12.501Z,98661.86
2019-04-04T03:24:44.472Z,98661.52
2019-04-04T03:27:10.013Z,98664.73
2019-04-04T03:29:38.448Z,98670.02
2019-04-04T03:32:13.135Z,98659.05
2019-04-04T03:34:36.141Z,98655.02
2019-04-04T03:37:06.639Z,98644.71
2019-04-04T03:39:33.561Z,98653.23
2019-04-04T03:42:01.334Z,98653.29
2019-04-04T03:44:29.063Z,98658.64
2019-04-04T03:46:56.810Z,98664.55
2019-04-04T03:49:26.975Z,98659.83
2019-04-04T03:51:54.728Z,98663.72
2019-04-04T03:54:25.105Z,98659.95
2019-04-04T03:56:52.788Z,98654.30
2019-04-04T03:59:20.564Z,98645.66
2019-04-04T04:01:48.319Z,98650.34
2019-04-04T04:04:16.079Z,98652.95
2019-04-04T04:06:44.007Z,98654.25
2019-04-04T04:09:11.777Z,98660.21
2019-04-04T04:11:39.543Z,98665.56
2019-04-04T04:14:07.299Z,98668.22
2019-04-04T04:16:36.104Z,98679.84
2019-04-04T04:19:04.340Z,98682.02
2019-04-04T04:21:32.062Z,98678.49
2019-04-04T04:23:59.820Z,98671.85
2019-04-04T04:26:27.552Z,98675.87
2019-04-04T04:28:55.344Z,98662.95
2019-04-04T04:31:23.093Z,98662.05
2019-04-04T04:33:50.828Z,98658.63
2019-04-04T04:36:18.576Z,98660.65
2019-04-04T04:38:46.344Z,98662.80
2019-04-04T04:41:14.126Z,98676.98
2019-04-04T04:43:41.857Z,98669.46
2019-04-04T04:46:09.630Z,98675.11
2019-04-04T04:48:37.387Z,98666.80
2019-04-04T04:51:05.107Z,98670.66
2019-04-04T04:53:32.843Z,98670.23
2019-04-04T04:56:00.792Z,98671.12
2019-04-04T04:58:28.628Z,98656.78
2019-04-04T05:00:56.417Z,98653.61
2019-04-04T05:03:24.812Z,98663.59
2019-04-04T05:05:52.705Z,98658.53
2019-04-04T05:08:20.469Z,98660.22
2019-04-04T05:10:48.190Z,98643.98
2019-04-04T05:13:15.947Z,98634.78
2019-04-04T05:15:43.697Z,98641.69
2019-04-04T05:18:11.973Z,98640.42
2019-04-04T05:20:39.909Z,98654.72
2019-04-04T05:23:07.611Z,98654.97
2019-04-04T05:25:35.493Z,98657.39
2019-04-04T05:28:06.105Z,98655.53
2019-04-04T05:30:32.920Z,98646.63
2019-04-04T05:33:00.671Z,98639.64
2019-04-04T05:35:28.412Z,98644.77
2019-04-04T05:37:56.153Z,98651.75
2019-04-04T05:40:24.287Z,98649.10
2019-04-04T05:42:52.083Z,98651.11
2019-04-04T05:45:19.877Z,98657.89
2019-04-04T05:47:47.631Z,98659.28
2019-04-04T05:50:16.472Z,98653.30
2019-04-04T05:52:44.364Z,98648.95
2019-04-04T05:55:12.097Z,98658.94
2019-04-04T05:57:39.867Z,98665.06
2019-04-04T06:00:10.618Z,98662.59
2019-04-04T06:02:38.373Z,98661.50
2019-04-04T06:05:06.643Z,98669.48
2019-04-04T06:07:36.412Z,98661.45
2019-04-04T06:10:04.680Z,98664.14
2019-04-04T06:12:32.444Z,98663.66
2019-04-04T06:15:01.129Z,98661.83
2019-04-04T06:17:29.010Z,98658.53
2019-04-04T06:19:56.758Z,98666.66
2019-04-04T06:22:24.515Z,98663.28
2019-04-04T06:24:52.429Z,98662.28
2019-04-04T06:27:20.193Z,98656.44
2019-04-04T06:29:48.340Z,98646.83
2019-04-04T06:32:16.105Z,98644.87
2019-04-04T06:34:44.299Z,98635.63
2019-04-04T06:37:12.568Z,98633.12
2019-04-04T06:39:40.278Z,98628.33
2019-04-04T06:42:11.168Z,98633.36
2019-04-04T06:44:37.691Z,98631.17
2019-04-04T06:47:05.551Z,98641.29
2019-04-04T06:49:35.478Z,98636.01
2019-04-04T06:52:02.994Z,98649.94
2019-04-04T06:54:30.787Z,98652.09
2019-04-04T06:56:59.274Z,98653.73
2019-04-04T06:59:27.144Z,98661.56
2019-04-04T07:01:54.944Z,98660.11
2019-04-04T07:04:22.679Z,98651.16
2019-04-04T07:06:50.435Z,98659.13
2019-04-04T07:09:19.176Z,98654.00
2019-04-04T07:11:47.016Z,98637.73
2019-04-04T07:14:14.770Z,98630.92
2019-04-04T07:16:42.543Z,98626.64
2019-04-04T07:19:14.146Z,98621.23
2019-04-04T07:21:40.027Z,98619.89
2019-04-04T07:24:07.754Z,98615.50
2019-04-04T07:26:35.533Z,98622.30
2019-04-04T07:29:03.473Z,98636.88
2019-04-04T07:31:33.432Z,98633.12
2019-04-04T07:34:00.855Z,98623.14
2019-04-04T07:36:28.623Z,98614.22
2019-04-04T07:38:58.171Z,98622.30
2019-04-04T07:41:26.303Z,98620.78
2019-04-04T07:43:54.051Z,98607.64
2019-04-04T07:46:21.765Z,98605.34
2019-04-04T07:48:51.581Z,98597.73
2019-04-04T07:51:19.167Z,98615.22
2019-04-04T07:53:46.893Z,98621.32
2019-04-04T07:56:14.947Z,98619.97
2019-04-04T07:58:42.709Z,98613.92
2019-04-04T08:01:10.447Z,98616.51
2019-04-04T08:03:38.217Z,98616.48
2019-04-04T08:06:06.004Z,98623.76
2019-04-04T08:08:33.905Z,98611.19
2019-04-04T08:11:02.205Z,98613.33
2019-04-04T08:13:29.948Z,98615.49
2019-04-04T08:15:57.729Z,98612.75
2019-04-04T08:18:25.453Z,98601.56
2019-04-04T08:20:53.236Z,98601.33
2019-04-04T08:23:21.770Z,98591.75
2019-04-04T08:25:49.524Z,98593.51
2019-04-04T08:28:17.250Z,98596.86
2019-04-04T08:30:45.112Z,98585.27
2019-04-04T08:33:13.373Z,98598.32
2019-04-04T08:35:41.136Z,98590.06
2019-04-04T08:38:08.896Z,98590.72
2019-04-04T08:40:36.679Z,98581.88
2019-04-04T08:43:04.423Z,98582.78
2019-04-04T08:45:32.160Z,98589.91
2019-04-04T08:47:59.909Z,98570.36
2019-04-04T08:50:27.689Z,98564.72
2019-04-04T08:52:55.422Z,98558.73
2019-04-04T08:55:23.159Z,98542.30
2019-04-04T08:57:50.912Z,98545.05
2019-04-04T09:00:18.632Z,98535.98
2019-04-04T09:02:47.608Z,98541.12
2019-04-04T09:05:15.344Z,98543.51
2019-04-04T09:07:43.101Z,98542.38
2019-04-04T09:10:11.191Z,98543.33
2019-04-04T09:12:38.984Z,98549.07
2019-04-04T09:15:07.875Z,98541.44
2019-04-04T09:17:35.633Z,98534.62
2019-04-04T09:20:05.151Z,98522.69
2019-04-04T09:22:32.876Z,98536.09
2019-04-04T09:25:01.541Z,98534.19
2019-04-04T09:27:29.456Z,98531.11
2019-04-04T09:29:57.155Z,98533.91
2019-04-04T09:32:24.899Z,98533.45
2019-04-04T09:34:52.839Z,98534.44
2019-04-04T09:37:20.575Z,98530.23
2019-04-04T09:39:48.343Z,98526.50
2019-04-04T09:42:16.398Z,98520.14
2019-04-04T09:44:44.158Z,98523.45
2019-04-04T09:47:12.180Z,98519.25
2019-04-04T09:49:39.912Z,98521.47
2019-04-04T09:52:07.659Z,98517.22
2019-04-04T09:54:35.402Z,98535.88
2019-04-04T09:57:03.144Z,98536.55
2019-04-04T09:59:30.876Z,98526.81
2019-04-04T10:01:58.625Z,98535.16
2019-04-04T10:04:26.344Z,98527.55
2019-04-04T10:06:54.329Z,98528.50
2019-04-04T10:09:22.056Z,98535.24
2019-04-04T10:11:49.813Z,98533.34
2019-04-04T10:14:17.543Z,98528.73
2019-04-04T10:16:45.274Z,98531.70
2019-04-04T10:19:13.043Z,98520.12
2019-04-04T10:21:40.786Z,98522.41
2019-04-04T10:24:08.528Z,98515.95
2019-04-04T10:26:36.252Z,98511.80
2019-04-04T10:29:04.011Z,98507.02
2019-04-04T10:31:31.732Z,98493.47
2019-04-04T10:33:59.488Z,98478.89
2019-04-04T10:36:27.234Z,98477.84
2019-04-04T10:38:54.952Z,98479.49
2019-04-04T10:41:22.703Z,98486.25
2019-04-04T10:43:50.601Z,98482.81
2019-04-04T10:46:18.541Z,98481.56
2019-04-04T10:48:46.259Z,98483.74
2019-04-04T10:51:14.260Z,98482.13
2019-04-04T10:53:41.977Z,98466.89
2019-04-04T10:56:09.939Z,98465.22
2019-04-04T10:58:38.246Z,98467.02
2019-04-04T11:01:06.063Z,98467.73
2019-04-04T11:03:33.787Z,98470.37
2019-04-04T11:06:01.566Z,98465.00
2019-04-04T11:08:29.323Z,98461.00
2019-04-04T11:10:58.957Z,98471.31
2019-04-04T11:13:33.444Z,98473.33
2019-04-04T11:15:56.393Z,98471.73
2019-04-04T11:18:24.177Z,98467.36
2019-04-04T11:20:52.117Z,98462.25
2019-04-04T11:23:19.891Z,98473.03
2019-04-04T11:25:48.065Z,98472.02
2019-04-04T11:28:15.838Z,98481.89
2019-04-04T11:30:43.711Z,98483.45
2019-04-04T11:33:11.475Z,98483.07
2019-04-04T11:35:39.423Z,98482.09
2019-04-04T11:38:07.238Z,98477.40
2019-04-04T11:40:34.967Z,98477.73
2019-04-04T11:43:02.761Z,98478.58
2019-04-04T11:45:30.604Z,98485.94
2019-04-04T11:47:59.199Z,98471.67
2019-04-04T11:50:27.031Z,98466.63
2019-04-04T11:52:54.838Z,98469.27
2019-04-04T11:55:22.594Z,98455.53
2019-04-04T11:57:50.372Z,98459.67
2019-04-04T12:00:26.056Z,98457.58
2019-04-04T12:02:53.869Z,98446.59
2019-04-04T12:05:21.602Z,98459.61
2019-04-04T12:07:49.361Z,98452.16
2019-04-04T12:10:17.088Z,98456.60
2019-04-04T12:12:44.840Z,98454.50
2019-04-04T12:15:12.796Z,98454.88
2019-04-04T12:17:40.534Z,98451.53
2019-04-04T12:20:08.695Z,98445.02
2019-04-04T12:22:36.426Z,98442.34
2019-04-04T12:25:04.803Z,98435.86
2019-04-04T12:27:32.560Z,98431.56
2019-04-04T12:30:00.323Z,98428.20
2019-04-04T12:32:28.072Z,98424.89
2019-04-04T12:34:55.823Z,98421.36
2019-04-04T12:37:23.565Z,98423.89
2019-04-04T12:39:51.324Z,98423.06
2019-04-04T12:42:19.057Z,98419.28
2019-04-04T12:44:46.822Z,98408.58
2019-04-04T12:47:14.608Z,98401.44
2019-04-04T12:49:42.388Z,98401.28
2019-04-04T12:52:10.117Z,98388.70
2019-04-04T12:54:37.873Z,98378.89
2019-04-04T12:57:05.636Z,98374.55
2019-04-04T12:59:33.513Z,98377.73
2019-04-04T13:02:03.035Z,98382.63
2019-04-04T13:04:32.063Z,98369.41
2019-04-04T13:07:00.062Z,98375.42
2019-04-04T13:09:27.828Z,98368.44
2019-04-04T13:11:55.589Z,98356.25
2019-04-04T13:14:23.315Z,98356.41
2019-04-04T13:16:51.046Z,98347.33
2019-04-04T13:19:18.841Z,98341.91
2019-04-04T13:21:46.531Z,98342.14
2019-04-04T13:24:14.341Z,98341.98
2019-04-04T13:26:43.460Z,98339.75
2019-04-04T13:29:11.297Z,98335.98
2019-04-04T13:31:39.036Z,98338.80
2019-04-04T13:34:06.819Z,98330.34
2019-04-04T13:36:36.714Z,98332.13
2019-04-04T13:39:09.045Z,98331.63
2019-04-04T13:41:37.076Z,98318.78
2019-04-04T13:44:04.922Z,98312.75
2019-04-04T13:46:32.688Z,98310.34
2019-04-04T13:49:00.410Z,98312.28
2019-04-04T13:51:28.202Z,98313.23
2019-04-04T13:53:55.912Z,98321.16
2019-04-04T13:56:23.699Z,98305.53
2019-04-04T13:58:51.470Z,98310.55
2019-04-04T14:01:19.214Z,98309.92
2019-04-04T14:03:48.170Z,98314.17
2019-04-04T14:06:15.968Z,98308.92
2019-04-04T14:08:45.806Z,98311.90
2019-04-04T14:11:13.454Z,98319.70
2019-04-04T14:13:41.190Z,98311.97
2019-04-04T14:16:08.912Z,98311.20
2019-04-04T14:18:39.833Z,98310.68
2019-04-04T14:21:06.383Z,98297.55
2019-04-04T14:23:34.098Z,98293.66
2019-04-04T14:26:02.209Z,98290.98
2019-04-04T14:28:29.944Z,98295.27
2019-04-04T14:30:58.201Z,98291.53
2019-04-04T14:33:25.926Z,98286.94
2019-04-04T14:35:53.692Z,98290.25
2019-04-04T14:38:21.431Z,98286.12
2019-04-04T14:40:49.222Z,98273.20
2019-04-04T14:43:16.969Z,98278.33
2019-04-04T14:45:44.705Z,98278.66
2019-04-04T14:48:12.489Z,98278.95
2019-04-04T14:50:40.283Z,98279.25
2019-04-04T14:53:08.020Z,98285.09
2019-04-04T14:55:35.792Z,98286.83
2019-04-04T14:58:03.665Z,98291.31
2019-04-04T15:00:31.498Z,98287.16
2019-04-04T15:02:59.266Z,98285.92
2019-04-04T15:05:26.989Z,98290.69
2019-04-04T15:07:54.749Z,98286.57
2019-04-04T15:10:22.479Z,98291.20
2019-04-04T15:12:50.473Z,98294.25
2019-04-04T15:15:18.229Z,98290.23
2019-04-04T15:17:45.979Z,98291.09
2019-04-04T15:20:13.957Z,98294.67
2019-04-04T15:22:41.736Z,98293.98
2019-04-04T15:25:10.460Z,98291.91
2019-04-04T15:27:38.232Z,98304.50
2019-04-04T15:30:06.557Z,98302.88
2019-04-04T15:32:34.289Z,98304.68
2019-04-04T15:35:02.022Z,98308.00
2019-04-04T15:37:29.799Z,98308.92
2019-04-04T15:39:57.541Z,98314.04
2019-04-04T15:42:25.307Z,98318.84
2019-04-04T15:44:53.040Z,98327.59
2019-04-04T15:47:20.881Z,98328.97
2019-04-04T15:49:49.720Z,98329.31
2019-04-04T15:52:17.489Z,98339.43
2019-04-04T15:54:45.201Z,98340.03
2019-04-04T15:57:12.990Z,98342.30
2019-04-04T15:59:40.752Z,98347.44
2019-04-04T16:02:08.544Z,98349.02
2019-04-04T16:04:36.295Z,98355.31
2019-04-04T16:07:04.989Z,98351.25
2019-04-04T16:09:32.750Z,98350.84
2019-04-04T16:12:00.527Z,98357.20
2019-04-04T16:14:28.325Z,98360.70
2019-04-04T16:16:56.074Z,98359.27
2019-04-04T16:19:24.218Z,98357.58
2019-04-04T16:21:51.994Z,98358.09
2019-04-04T16:24:19.776Z,98364.89
2019-04-04T16:26:47.528Z,98367.64
2019-04-04T16:29:15.315Z,98365.24
2019-04-04T16:31:43.033Z,98365.72
2019-04-04T16:34:10.807Z,98368.92
2019-04-04T16:36:38.601Z,98368.92
2019-04-04T16:39:07.750Z,98372.58
2019-04-04T16:41:35.555Z,98367.63
2019-04-04T16:44:03.535Z,98366.95
2019-04-04T16:46:31.299Z,98380.81
2019-04-04T16:48:59.049Z,98379.97
2019-04-04T16:51:26.789Z,98380.70
2019-04-04T16:53:54.543Z,98389.23
2019-04-04T16:56:22.301Z,98388.67
2019-04-04T16:58:50.102Z,98393.31
2019-04-04T17:01:17.822Z,98396.17
2019-04-04T17:03:45.589Z,98400.83
2019-04-04T17:06:13.325Z,98401.47
2019-04-04T17:08:41.135Z,98399.84
2019-04-04T17:11:08.890Z,98399.98
2019-04-04T17:13:36.657Z,98405.81
2019-04-04T17:16:04.331Z,98409.27
2019-04-04T17:18:32.153Z,98419.07
2019-04-04T17:20:59.938Z,98420.38
2019-04-04T17:23:27.707Z,98424.48
2019-04-04T17:25:55.456Z,98428.27
2019-04-04T17:28:23.794Z,98434.61
2019-04-04T17:30:51.913Z,98436.90
2019-04-04T17:33:19.784Z,98444.56
2019-04-04T17:35:47.579Z,98455.44
2019-04-04T17:38:15.327Z,98461.59
2019-04-04T17:40:43.088Z,98463.20
2019-04-04T17:43:10.834Z,98467.30
2019-04-04T17:45:39.127Z,98461.78
2019-04-04T17:48:07.393Z,98476.30
2019-04-04T17:50:35.623Z,98467.17
2019-04-04T17:53:03.558Z,98471.93
2019-04-04T17:55:31.546Z,98467.95
2019-04-04T17:57:59.357Z,98473.03
2019-04-04T18:00:28.401Z,98469.15
2019-04-04T18:02:56.160Z,98471.80
2019-04-04T18:05:24.220Z,98480.69
2019-04-04T18:07:51.960Z,98481.20
2019-04-04T18:10:19.796Z,98488.16
2019-04-04T18:12:47.539Z,98485.67
2019-04-04T18:15:15.626Z,98494.77
2019-04-04T18:17:43.381Z,98495.39
2019-04-04T18:20:11.656Z,98500.11
2019-04-04T18:22:39.387Z,98495.84
2019-04-04T18:25:08.649Z,98504.03
2019-04-04T18:27:36.471Z,98508.70
2019-04-04T18:30:06.868Z,98507.91
2019-04-04T18:32:34.613Z,98509.30
2019-04-04T18:35:02.482Z,98517.22
2019-04-04T18:37:30.239Z,98523.73
2019-04-04T18:39:57.999Z,98526.99
2019-04-04T18:42:25.809Z,98532.45
2019-04-04T18:44:53.575Z,98546.27
2019-04-04T18:47:21.360Z,98555.50
2019-04-04T18:49:49.191Z,98558.50
2019-04-04T18:52:16.975Z,98578.52
2019-04-04T18:54:44.953Z,98581.75
2019-04-04T18:57:13.260Z,98590.09
2019-04-04T18:59:41.150Z,98587.30
2019-04-04T19:02:08.995Z,98597.39
2019-04-04T19:04:36.854Z,98591.48
2019-04-04T19:07:04.619Z,98584.73
2019-04-04T19:09:32.471Z,98597.69
2019-04-04T19:12:00.238Z,98593.66
2019-04-04T19:14:27.976Z,98600.42
2019-04-04T19:16:55.751Z,98590.98
2019-04-04T19:19:23.523Z,98603.95
2019-04-04T19:21:51.305Z,98606.64
2019-04-04T19:24:19.067Z,98617.19
2019-04-04T19:26:46.803Z,98621.77
2019-04-04T19:29:14.581Z,98618.53
2019-04-04T19:31:42.360Z,98626.59
2019-04-04T19:34:10.129Z,98629.29
2019-04-04T19:36:37.962Z,98637.91
2019-04-04T19:39:09.224Z,98644.34
2019-04-04T19:41:37.750Z,98641.94
2019-04-04T19:44:05.604Z,98642.70
2019-04-04T19:46:37.300Z,98655.66
2019-04-04T19:49:03.080Z,98657.59
2019-04-04T19:51:30.867Z,98660.78
2019-04-04T19:53:58.658Z,98660.78
2019-04-04T19:56:26.681Z,98668.48
2019-04-04T19:58:54.487Z,98670.88
2019-04-04T20:01:22.283Z,98671.61
2019-04-04T20:03:50.036Z,98666.72
2019-04-04T20:06:17.777Z,98673.92
2019-04-04T20:08:45.517Z,98672.02
2019-04-04T20:11:13.280Z,98672.22
2019-04-04T20:13:41.038Z,98680.30
2019-04-04T20:16:08.854Z,98681.39
2019-04-04T20:18:36.659Z,98678.43
2019-04-04T20:21:04.440Z,98683.78
2019-04-04T20:23:32.240Z,98687.49
2019-04-04T20:26:00.127Z,98682.03
2019-04-04T20:28:28.020Z,98689.25
2019-04-04T20:30:55.789Z,98686.55
2019-04-04T20:33:23.604Z,98683.08
2019-04-04T20:35:51.343Z,98682.22
2019-04-04T20:38:19.139Z,98692.65
2019-04-04T20:40:48.010Z,98697.45
2019-04-04T20:43:15.779Z,98699.03
2019-04-04T20:45:43.549Z,98698.98
2019-04-04T20:48:11.301Z,98697.41
2019-04-04T20:50:39.073Z,98708.31
2019-04-04T20:53:06.850Z,98704.80
2019-04-04T20:55:34.583Z,98710.95
2019-04-04T20:58:02.437Z,98711.91
2019-04-04T21:00:30.219Z,98713.27
2019-04-04T21:02:58.019Z,98718.39
2019-04-04T21:05:25.799Z,98727.16
2019-04-04T21:07:53.559Z,98744.30
2019-04-04T21:10:21.333Z,98736.36
2019-04-04T21:12:49.097Z,98731.80
2019-04-04T21:15:16.859Z,98748.12
2019-04-04T21:17:44.623Z,98756.77
2019-04-04T21:20:13.297Z,98759.61
2019-04-04T21:22:41.023Z,98762.03
2019-04-04T21:25:09.095Z,98762.36
2019-04-04T21:27:36.838Z,98766.06
2019-04-04T21:30:05.421Z,98774.97
2019-04-04T21:32:33.177Z,98771.36
2019-04-04T21:35:00.941Z,98776.80
2019-04-04T21:37:28.682Z,98789.60
2019-04-04T21:39:56.539Z,98788.56
2019-04-04T21:42:24.288Z,98792.42
2019-04-04T21:44:52.080Z,98801.53
2019-04-04T21:47:19.814Z,98807.48
2019-04-04T21:49:47.569Z,98806.88
2019-04-04T21:52:15.322Z,98809.52
2019-04-04T21:54:43.090Z,98811.86
2019-04-04T21:57:10.844Z,98808.03
2019-04-04T21:59:38.591Z,98813.00
2019-04-04T22:02:06.337Z,98814.39
2019-04-04T22:04:34.082Z,98823.17
2019-04-04T22:07:01.838Z,98820.05
2019-04-04T22:09:29.589Z,98819.16
2019-04-04T22:11:57.329Z,98829.78
2019-04-04T22:14:25.084Z,98843.77
2019-04-04T22:16:52.806Z,98837.77
2019-04-04T22:19:20.569Z,98845.16
2019-04-04T22:21:48.296Z,98838.12
2019-04-04T22:24:16.019Z,98839.98
2019-04-04T22:26:43.787Z,98840.30
2019-04-04T22:29:11.819Z,98853.96
2019-04-04T22:31:39.570Z,98863.56
2019-04-04T22:34:07.363Z,98862.17
2019-04-04T22:36:35.134Z,98861.06
2019-04-04T22:39:07.350Z,98862.91
2019-04-04T22:41:35.145Z,98863.17
2019-04-04T22:44:03.890Z,98866.70
2019-04-04T22:46:31.804Z,98868.83
2019-04-04T22:48:59.519Z,98867.66
2019-04-04T22:51:27.271Z,98868.22
2019-04-04T22:53:55.000Z,98872.87
2019-04-04T22:56:22.771Z,98885.92
2019-04-04T22:58:50.533Z,98885.10
2019-04-04T23:01:18.299Z,98883.20
2019-04-04T23:03:46.033Z,98879.89
2019-04-04T23:06:14.126Z,98884.81
2019-04-04T23:08:41.857Z,98902.31
2019-04-04T23:11:09.608Z,98910.14
2019-04-04T23:13:37.395Z,98925.19
2019-04-04T23:16:05.154Z,98912.22
2019-04-04T23:18:32.877Z,98923.52
2019-04-04T23:21:00.688Z,98907.45
2019-04-04T23:23:28.379Z,98909.48
2019-04-04T23:25:56.136Z,98908.34
2019-04-04T23:28:23.903Z,98908.44
2019-04-04T23:30:51.637Z,98918.08
2019-04-04T23:33:19.454Z,98918.64
2019-04-04T23:35:47.248Z,98929.69
2019-04-04T23:38:14.997Z,98929.64
2019-04-04T23:40:42.811Z,98927.57
2019-04-04T23:43:10.529Z,98916.89
2019-04-04T23:45:38.288Z,98917.89
2019-04-04T23:48:06.024Z,98912.81
2019-04-04T23:50:33.757Z,98910.63
2019-04-04T23:53:01.551Z,98909.20
2019-04-04T23:55:29.288Z,98908.59
2019-04-04T23:57:57.540Z,98913.00
